Terminal Aerodrome Forecast
Issued by NWS

Home | Current Version | Previous Version | Text Only | Print | Product List | Glossary On
Versions: 1 2 3 4 5 6 7 8 9 10 11 12 13
000
FTUS45 KREV 101740
TAFTRK
TAF
KTRK 101740Z 1018/1118 22010G20KT 3SM RA BR FEW012 OVC025
      TEMPO 1020/1024 2SM +RA BR FEW012 OVC020
     FM110100 22008KT 6SM -SHRA BR SCT015 BKN030
     FM110500 22006KT P6SM FEW020 SCT035=

USA.gov is the U.S. government's official web portal to all federal, state and local government web resources and services.